createdAt,value
2022-09-06T00:00:28.900Z,101605.47
2022-09-06T00:02:55.279Z,101601.88
2022-09-06T00:05:21.707Z,101597.09
2022-09-06T00:07:48.075Z,101587.53
2022-09-06T00:10:14.440Z,101589.91
2022-09-06T00:15:07.156Z,101586.34
2022-09-06T00:17:33.509Z,101591.53
2022-09-06T00:19:59.903Z,101597.09
2022-09-06T00:22:26.284Z,101591.50
2022-09-06T00:24:52.645Z,101593.38
2022-09-06T00:27:19.024Z,101595.78
2022-09-06T00:29:45.383Z,101599.69
2022-09-06T00:32:11.781Z,101598.47
2022-09-06T00:34:38.139Z,101596.09
2022-09-06T00:37:04.495Z,101604.75
2022-09-06T00:39:30.924Z,101596.75
2022-09-06T00:42:00.087Z,101596.44
2022-09-06T00:44:29.215Z,101591.69
2022-09-06T00:46:55.576Z,101590.88
2022-09-06T00:49:21.921Z,101589.28
2022-09-06T00:51:48.290Z,101590.88
2022-09-06T00:54:14.624Z,101590.47
2022-09-06T00:56:41.063Z,101590.88
2022-09-06T00:59:07.453Z,101595.59
2022-09-06T01:01:33.904Z,101592.06
2022-09-06T01:04:03.114Z,101591.69
2022-09-06T01:06:32.254Z,101590.88
2022-09-06T01:08:58.647Z,101593.66
2022-09-06T01:11:25.017Z,101588.78
2022-09-06T01:13:54.151Z,101590.06
2022-09-06T01:16:20.507Z,101588.91
2022-09-06T01:18:49.676Z,101596.09
2022-09-06T01:21:18.816Z,101590.88
2022-09-06T01:23:45.149Z,101585.34
2022-09-06T01:26:11.536Z,101583.75
2022-09-06T01:28:40.689Z,101590.91
2022-09-06T01:31:07.240Z,101588.94
2022-09-06T01:33:36.383Z,101587.31
2022-09-06T01:36:02.707Z,101579.75
2022-09-06T01:38:31.829Z,101586.44
2022-09-06T01:40:58.157Z,101590.81
2022-09-06T01:43:24.514Z,101591.69
2022-09-06T01:45:53.704Z,101585.75
2022-09-06T01:48:20.062Z,101586.50
2022-09-06T01:50:46.407Z,101584.53
2022-09-06T01:53:12.863Z,101582.94
2022-09-06T01:55:42.013Z,101585.28
2022-09-06T01:58:08.373Z,101588.06
2022-09-06T02:00:34.725Z,101576.16
2022-09-06T02:03:01.098Z,101585.75
2022-09-06T02:05:27.454Z,101582.50
2022-09-06T02:07:56.571Z,101579.69
2022-09-06T02:10:22.898Z,101590.44
2022-09-06T02:12:49.236Z,101590.44
2022-09-06T02:15:18.372Z,101582.88
2022-09-06T02:17:44.708Z,101586.50
2022-09-06T02:20:11.070Z,101586.41
2022-09-06T02:22:37.421Z,101584.00
2022-09-06T02:25:03.808Z,101590.81
2022-09-06T02:27:32.963Z,101588.75
2022-09-06T02:29:59.312Z,101588.75
2022-09-06T02:32:25.674Z,101593.09
2022-09-06T02:34:52.027Z,101598.25
2022-09-06T02:37:18.376Z,101589.53
2022-09-06T02:39:44.834Z,101590.69
2022-09-06T02:42:11.242Z,101600.22
2022-09-06T02:44:37.608Z,101600.72
2022-09-06T02:47:04.047Z,101594.72
2022-09-06T02:49:30.393Z,101600.97
2022-09-06T02:51:56.737Z,101598.63
2022-09-06T02:54:23.094Z,101600.16
2022-09-06T02:56:52.229Z,101596.94
2022-09-06T02:59:18.988Z,101595.00
2022-09-06T03:01:45.383Z,101597.38
2022-09-06T03:04:11.811Z,101589.78
2022-09-06T03:06:38.197Z,101586.53
2022-09-06T03:09:04.580Z,101577.09
2022-09-06T03:11:30.959Z,101578.69
2022-09-06T03:13:57.337Z,101573.50
2022-09-06T03:16:23.711Z,101571.91
2022-09-06T03:18:50.092Z,101577.00
2022-09-06T03:21:16.577Z,101583.38
2022-09-06T03:23:42.945Z,101577.03
2022-09-06T03:26:09.310Z,101588.19
2022-09-06T03:28:35.662Z,101590.59
2022-09-06T03:31:04.859Z,101577.47
2022-09-06T03:33:31.322Z,101579.84
2022-09-06T03:35:57.676Z,101580.97
2022-09-06T03:38:24.013Z,101588.97
2022-09-06T03:40:50.385Z,101592.53
2022-09-06T03:43:16.872Z,101594.88
2022-09-06T03:45:43.273Z,101593.47
2022-09-06T03:48:09.674Z,101589.34
2022-09-06T03:50:36.031Z,101585.34
2022-09-06T03:53:02.389Z,101584.19
2022-09-06T03:55:28.722Z,101580.63
2022-09-06T03:57:55.083Z,101584.28
2022-09-06T04:00:21.423Z,101588.56
2022-09-06T04:02:47.824Z,101582.25
2022-09-06T04:05:14.226Z,101579.75
2022-09-06T04:07:40.559Z,101577.38
2022-09-06T04:10:06.892Z,101576.59
2022-09-06T04:12:33.248Z,101577.03
2022-09-06T04:14:59.606Z,101572.66
2022-09-06T04:17:26.013Z,101578.56
2022-09-06T04:19:52.365Z,101582.56
2022-09-06T04:22:18.718Z,101572.28
2022-09-06T04:24:45.049Z,101568.75
2022-09-06T04:27:11.475Z,101565.53
2022-09-06T04:29:37.820Z,101569.50
2022-09-06T04:32:04.248Z,101572.28
2022-09-06T04:34:30.675Z,101577.38
2022-09-06T04:36:57.054Z,101578.50
2022-09-06T04:39:23.470Z,101585.66
2022-09-06T04:41:49.822Z,101582.78
2022-09-06T04:44:16.189Z,101587.13
2022-09-06T04:46:42.540Z,101583.97
2022-09-06T04:49:08.932Z,101582.34
2022-09-06T04:51:35.304Z,101585.59
2022-09-06T04:54:01.671Z,101584.03
2022-09-06T04:56:28.053Z,101582.13
2022-09-06T04:58:54.460Z,101583.69
2022-09-06T05:01:20.951Z,101585.69
2022-09-06T05:03:47.498Z,101581.63
2022-09-06T05:06:13.887Z,101578.41
2022-09-06T05:08:40.250Z,101576.28
2022-09-06T05:11:06.650Z,101579.63
2022-09-06T05:13:33.015Z,101581.25
2022-09-06T05:15:59.444Z,101576.91
2022-09-06T05:18:25.906Z,101580.91
2022-09-06T05:20:52.563Z,101586.44
2022-09-06T05:23:18.915Z,101575.31
2022-09-06T05:25:45.255Z,101584.06
2022-09-06T05:28:11.642Z,101583.31
2022-09-06T05:30:38.066Z,101582.94
2022-09-06T05:33:04.473Z,101582.81
2022-09-06T05:35:30.859Z,101577.72
2022-09-06T05:37:57.303Z,101569.31
2022-09-06T05:40:23.910Z,101565.75
2022-09-06T05:42:50.644Z,101576.53
2022-09-06T05:45:18.108Z,101574.00
2022-09-06T05:47:44.806Z,101577.25
2022-09-06T05:50:11.160Z,101579.19
2022-09-06T05:52:37.529Z,101580.03
2022-09-06T05:55:03.926Z,101580.91
2022-09-06T05:57:30.294Z,101567.47
2022-09-06T05:59:56.748Z,101572.66
2022-09-06T06:02:23.253Z,101573.44
2022-09-06T06:04:49.684Z,101569.44
2022-09-06T06:07:16.082Z,101574.22
2022-09-06T06:09:42.456Z,101568.66
2022-09-06T06:12:09.715Z,101571.03
2022-09-06T06:14:36.105Z,101568.25
2022-09-06T06:17:02.587Z,101565.38
2022-09-06T06:19:29.009Z,101574.13
2022-09-06T06:21:55.401Z,101561.88
2022-09-06T06:24:21.771Z,101565.53
2022-09-06T06:26:48.163Z,101575.88
2022-09-06T06:29:15.392Z,101568.75
2022-09-06T06:31:41.868Z,101576.81
2022-09-06T06:34:08.384Z,101571.28
2022-09-06T06:36:34.788Z,101580.84
2022-09-06T06:39:01.157Z,101571.22
2022-09-06T06:41:27.510Z,101574.72
2022-09-06T06:43:53.861Z,101573.94
2022-09-06T06:46:20.291Z,101572.47
2022-09-06T06:48:47.400Z,101573.22
2022-09-06T06:51:15.055Z,101575.53
2022-09-06T06:53:41.453Z,101584.72
2022-09-06T06:56:07.807Z,101582.00
2022-09-06T06:58:34.168Z,101587.75
2022-09-06T07:01:03.478Z,101589.59
2022-09-06T07:03:29.933Z,101594.38
2022-09-06T07:06:12.341Z,101594.88
2022-09-06T07:08:39.285Z,101594.38
2022-09-06T07:11:05.694Z,101590.09
2022-09-06T07:13:32.062Z,101594.13
2022-09-06T07:15:58.417Z,101599.31
2022-09-06T07:18:24.870Z,101593.34
2022-09-06T07:26:29.441Z,101594.44
2022-09-06T07:28:58.646Z,101593.38
2022-09-06T07:34:11.364Z,101593.66
2022-09-06T07:36:37.711Z,101593.03
2022-09-06T07:39:04.107Z,101592.81
2022-09-06T07:41:30.434Z,101583.34
2022-09-06T07:43:56.802Z,101584.22
2022-09-06T07:46:26.028Z,101582.66
2022-09-06T07:48:55.187Z,101582.22
2022-09-06T07:51:21.494Z,101585.00
2022-09-06T07:53:47.827Z,101575.84
2022-09-06T07:56:14.162Z,101575.38
2022-09-06T07:58:43.350Z,101584.59
2022-09-06T08:01:09.695Z,101589.84
2022-09-06T08:03:39.003Z,101578.72
2022-09-06T08:06:08.311Z,101579.09
2022-09-06T08:11:20.944Z,101579.09
2022-09-06T08:13:50.101Z,101581.53
2022-09-06T08:16:16.517Z,101578.38
2022-09-06T08:18:42.871Z,101578.78
2022-09-06T08:21:12.394Z,101579.88
2022-09-06T08:23:41.700Z,101577.47
2022-09-06T08:26:08.033Z,101585.81
2022-09-06T08:28:37.176Z,101592.00
2022-09-06T08:31:06.376Z,101584.88
2022-09-06T08:33:32.849Z,101578.81
2022-09-06T08:36:01.981Z,101567.53
2022-09-06T08:38:28.316Z,101565.16
2022-09-06T08:40:54.639Z,101560.47
2022-09-06T08:43:23.850Z,101566.91
2022-09-06T08:45:55.623Z,101562.94
2022-09-06T08:48:25.021Z,101558.50
2022-09-06T08:50:54.187Z,101558.16
2022-09-06T08:53:20.538Z,101562.56
2022-09-06T08:55:49.743Z,101553.31
2022-09-06T08:58:16.073Z,101555.66
2022-09-06T09:00:45.220Z,101552.81
2022-09-06T09:03:16.440Z,101544.16
2022-09-06T09:05:43.087Z,101543.03
2022-09-06T09:08:09.440Z,101543.06
2022-09-06T09:10:38.597Z,101536.28
2022-09-06T09:13:04.951Z,101535.16
2022-09-06T09:15:37.140Z,101531.94
2022-09-06T09:18:06.473Z,101531.47
2022-09-06T09:20:32.792Z,101527.19
2022-09-06T09:23:01.935Z,101527.59
2022-09-06T09:25:31.073Z,101521.66
2022-09-06T09:28:00.194Z,101530.44
2022-09-06T09:33:18.455Z,101520.97
2022-09-06T09:35:44.774Z,101527.47
2022-09-06T09:38:12.249Z,101520.69
2022-09-06T09:40:41.537Z,101512.66
2022-09-06T09:43:10.689Z,101508.72
2022-09-06T09:45:39.830Z,101506.00
2022-09-06T09:48:06.185Z,101503.53
2022-09-06T09:50:32.498Z,101506.72
2022-09-06T09:53:01.696Z,101501.13
2022-09-06T09:55:30.828Z,101496.34
2022-09-06T09:57:59.951Z,101492.72
2022-09-06T10:00:29.195Z,101493.91
2022-09-06T10:02:55.609Z,101492.31
2022-09-06T10:05:24.745Z,101485.94
2022-09-06T10:07:53.867Z,101478.78
2022-09-06T10:10:20.207Z,101480.81
2022-09-06T10:12:46.543Z,101476.81
2022-09-06T10:15:12.888Z,101466.91
2022-09-06T10:17:42.025Z,101472.84
2022-09-06T10:20:08.356Z,101468.88
2022-09-06T10:22:34.713Z,101469.72
2022-09-06T10:25:01.101Z,101460.84
2022-09-06T10:27:27.469Z,101461.66
2022-09-06T10:29:53.880Z,101457.28
2022-09-06T10:32:20.276Z,101450.16
2022-09-06T10:34:46.604Z,101460.94
2022-09-06T10:37:12.966Z,101457.78
2022-09-06T10:39:39.365Z,101458.56
2022-09-06T10:42:05.771Z,101458.91
2022-09-06T10:44:32.153Z,101463.28
2022-09-06T10:46:58.653Z,101454.16
2022-09-06T10:49:27.838Z,101458.13
2022-09-06T10:51:56.962Z,101452.97
2022-09-06T10:54:23.308Z,101445.03
2022-09-06T10:56:49.675Z,101440.69
2022-09-06T11:02:02.530Z,101439.13
2022-09-06T11:04:29.286Z,101436.75
2022-09-06T11:06:55.678Z,101429.97
2022-09-06T11:09:22.092Z,101435.56
2022-09-06T11:11:48.466Z,101430.38
2022-09-06T11:14:15.697Z,101433.19
2022-09-06T11:16:42.423Z,101431.19
2022-09-06T11:19:08.786Z,101432.81
2022-09-06T11:21:35.189Z,101428.81
2022-09-06T11:24:01.572Z,101424.06
2022-09-06T11:26:27.914Z,101424.06
2022-09-06T11:28:54.269Z,101414.09
2022-09-06T11:34:07.033Z,101414.91
2022-09-06T11:36:33.438Z,101418.09
2022-09-06T11:38:59.779Z,101402.97
2022-09-06T11:41:26.161Z,101404.19
2022-09-06T11:43:52.509Z,101403.78
2022-09-06T11:46:20.652Z,101393.81
2022-09-06T11:48:47.100Z,101387.84
2022-09-06T11:51:13.506Z,101387.84
2022-09-06T11:53:42.668Z,101388.63
2022-09-06T11:56:09.067Z,101382.28
2022-09-06T11:58:35.419Z,101377.09
2022-09-06T12:01:01.822Z,101373.50
2022-09-06T12:06:14.591Z,101362.38
2022-09-06T12:08:43.729Z,101368.34
2022-09-06T12:11:10.083Z,101362.75
2022-09-06T12:13:39.254Z,101358.38
2022-09-06T12:16:05.775Z,101357.56
2022-09-06T12:18:34.981Z,101359.19
2022-09-06T12:21:04.138Z,101367.16
2022-09-06T12:23:33.301Z,101361.53
2022-09-06T12:25:59.639Z,101352.38
2022-09-06T12:28:28.871Z,101342.44
2022-09-06T12:30:58.210Z,101343.22
2022-09-06T12:33:24.579Z,101341.59
2022-09-06T12:35:58.379Z,101348.00
2022-09-06T12:38:28.217Z,101342.41
2022-09-06T12:40:57.469Z,101337.22
2022-09-06T12:43:23.774Z,101334.84
2022-09-06T12:45:52.952Z,101328.88
2022-09-06T12:48:19.269Z,101327.25
2022-09-06T12:50:48.393Z,101328.88
2022-09-06T12:53:15.966Z,101326.06
2022-09-06T12:55:42.321Z,101326.06
2022-09-06T12:58:08.696Z,101322.47
2022-09-06T13:00:37.844Z,101325.69
2022-09-06T13:03:06.980Z,101322.47
2022-09-06T13:05:33.331Z,101316.50
2022-09-06T13:07:59.683Z,101320.50
2022-09-06T13:10:26.016Z,101311.31
2022-09-06T13:12:52.332Z,101316.50
2022-09-06T13:15:18.750Z,101315.69
2022-09-06T13:17:45.107Z,101310.50
2022-09-06T13:20:11.471Z,101320.03
2022-09-06T13:22:40.611Z,101313.56
2022-09-06T13:25:09.746Z,101311.59
2022-09-06T13:27:38.894Z,101316.75
2022-09-06T13:30:05.231Z,101310.44
2022-09-06T13:32:31.579Z,101329.50
2022-09-06T13:34:57.932Z,101319.59
2022-09-06T13:37:27.117Z,101316.41
2022-09-06T13:39:53.535Z,101310.84
2022-09-06T13:42:19.918Z,101314.44
2022-09-06T13:44:46.242Z,101314.06
2022-09-06T13:47:12.649Z,101310.47
2022-09-06T13:49:38.969Z,101306.50
2022-09-06T13:52:05.316Z,101306.91
2022-09-06T13:54:31.651Z,101301.25
2022-09-06T13:57:00.788Z,101297.66
2022-09-06T13:59:27.163Z,101298.03
2022-09-06T14:01:53.551Z,101294.47
2022-09-06T14:04:19.910Z,101288.50
2022-09-06T14:06:49.043Z,101290.47
2022-09-06T14:09:15.374Z,101281.34
2022-09-06T14:11:48.250Z,101289.31
2022-09-06T14:14:14.919Z,101277.41
2022-09-06T14:16:44.171Z,101274.63
2022-09-06T14:19:10.491Z,101278.59
2022-09-06T14:21:39.620Z,101281.75
2022-09-06T14:24:05.967Z,101278.56
2022-09-06T14:26:32.313Z,101275.78
2022-09-06T14:28:58.649Z,101286.16
2022-09-06T14:31:27.823Z,101277.78
2022-09-06T14:33:57.067Z,101271.78
2022-09-06T14:36:23.516Z,101275.38
2022-09-06T14:38:49.835Z,101272.59
2022-09-06T14:41:16.195Z,101268.22
2022-09-06T14:43:45.350Z,101270.97
2022-09-06T14:46:11.874Z,101268.56
2022-09-06T14:48:42.417Z,101263.03
2022-09-06T14:51:09.002Z,101265.41
2022-09-06T14:53:40.568Z,101264.59
2022-09-06T14:56:07.316Z,101255.84
2022-09-06T14:58:36.459Z,101256.22
2022-09-06T15:01:05.625Z,101255.06
2022-09-06T15:03:32.028Z,101254.25
2022-09-06T15:05:58.341Z,101254.25
2022-09-06T15:08:24.666Z,101245.50
2022-09-06T15:10:53.807Z,101237.97
2022-09-06T15:13:23.145Z,101237.16
2022-09-06T15:15:52.321Z,101236.75
2022-09-06T15:18:18.672Z,101238.75
2022-09-06T15:20:44.982Z,101228.00
2022-09-06T15:23:26.542Z,101228.78
2022-09-06T15:25:55.680Z,101225.22
2022-09-06T15:28:22.000Z,101227.59
2022-09-06T15:30:48.432Z,101223.59
2022-09-06T15:33:14.808Z,101230.38
2022-09-06T15:35:43.963Z,101213.25
2022-09-06T15:38:10.281Z,101217.59
2022-09-06T15:40:36.624Z,101214.03
2022-09-06T15:43:02.988Z,101214.44
2022-09-06T15:45:29.323Z,101210.88
2022-09-06T15:47:58.485Z,101217.22
2022-09-06T15:50:47.478Z,101211.25
2022-09-06T15:53:11.173Z,101210.03
2022-09-06T15:55:41.701Z,101210.03
2022-09-06T15:58:10.929Z,101206.06
2022-09-06T16:00:40.082Z,101198.88
2022-09-06T16:03:06.527Z,101200.50
2022-09-06T16:08:22.255Z,101200.09
2022-09-06T16:10:48.685Z,101196.09
2022-09-06T16:13:15.115Z,101192.91
2022-09-06T16:15:44.287Z,101188.16
2022-09-06T16:18:13.578Z,101193.69
2022-09-06T16:20:40.182Z,101196.09
2022-09-06T16:23:06.554Z,101192.53
2022-09-06T16:25:35.973Z,101181.38
2022-09-06T16:28:03.584Z,101184.53
2022-09-06T16:30:32.801Z,101188.53
2022-09-06T16:33:02.097Z,101185.75
2022-09-06T16:35:31.711Z,101180.94
2022-09-06T16:38:01.341Z,101186.91
2022-09-06T16:40:30.756Z,101188.09
2022-09-06T16:43:00.017Z,101179.75
2022-09-06T16:45:29.221Z,101189.34
2022-09-06T16:47:58.531Z,101192.53
2022-09-06T16:50:27.818Z,101191.75
2022-09-06T16:52:54.703Z,101192.53
2022-09-06T16:55:21.230Z,101190.53
2022-09-06T16:57:47.638Z,101196.09
2022-09-06T17:00:14.904Z,101199.31
2022-09-06T17:02:46.413Z,101195.31
2022-09-06T17:05:13.670Z,101190.53
2022-09-06T17:07:40.118Z,101195.69
2022-09-06T17:10:06.674Z,101195.31
2022-09-06T17:12:35.968Z,101192.13
2022-09-06T17:15:02.805Z,101192.91
2022-09-06T17:17:31.937Z,101195.72
2022-09-06T17:19:58.442Z,101195.72
2022-09-06T17:22:24.857Z,101195.31
2022-09-06T17:24:51.213Z,101196.53
2022-09-06T17:27:18.082Z,101203.69
2022-09-06T17:29:44.631Z,101199.31
2022-09-06T17:32:11.057Z,101202.50
2022-09-06T17:34:40.255Z,101202.09
2022-09-06T17:37:06.995Z,101207.81
2022-09-06T17:39:33.731Z,101209.00
2022-09-06T17:42:00.420Z,101212.97
2022-09-06T17:44:29.719Z,101212.56
2022-09-06T17:47:14.569Z,101216.56
2022-09-06T17:49:43.962Z,101208.94
2022-09-06T17:52:10.612Z,101208.03
2022-09-06T17:54:37.287Z,101209.09
2022-09-06T17:57:04.108Z,101214.34
2022-09-06T17:59:35.041Z,101216.38
2022-09-06T18:02:02.176Z,101219.97
2022-09-06T18:04:28.879Z,101214.75
2022-09-06T18:06:55.566Z,101221.19
2022-09-06T18:09:22.083Z,101221.97
2022-09-06T18:11:49.020Z,101221.91
2022-09-06T18:14:15.802Z,101218.38
2022-09-06T18:16:42.807Z,101217.56
2022-09-06T18:19:10.019Z,101224.47
2022-09-06T18:21:38.304Z,101226.94
2022-09-06T18:24:04.875Z,101218.56
2022-09-06T18:26:31.524Z,101225.31
2022-09-06T18:28:58.195Z,101216.94
2022-09-06T18:31:24.835Z,101226.88
2022-09-06T18:33:51.695Z,101230.91
2022-09-06T18:36:18.456Z,101224.47
2022-09-06T18:38:45.068Z,101230.44
2022-09-06T18:41:11.725Z,101232.06
2022-09-06T18:43:38.351Z,101233.25
2022-09-06T18:46:04.831Z,101236.41
2022-09-06T18:48:31.578Z,101234.34
2022-09-06T18:50:59.915Z,101234.72
2022-09-06T18:53:26.590Z,101234.72
2022-09-06T18:55:53.286Z,101238.69
2022-09-06T18:58:19.712Z,101237.09
2022-09-06T19:00:46.159Z,101238.28
2022-09-06T19:03:12.728Z,101234.69
2022-09-06T19:05:39.128Z,101237.88
2022-09-06T19:08:05.608Z,101229.91
2022-09-06T19:10:32.111Z,101228.31
2022-09-06T19:12:58.644Z,101229.91
2022-09-06T19:15:25.130Z,101228.34
2022-09-06T19:17:51.649Z,101229.09
2022-09-06T19:20:18.936Z,101229.88
2022-09-06T19:22:45.343Z,101224.31
2022-09-06T19:25:11.838Z,101223.50
2022-09-06T19:27:38.225Z,101223.06
2022-09-06T19:30:04.749Z,101223.47
2022-09-06T19:32:31.193Z,101223.81
2022-09-06T19:34:57.716Z,101229.78
2022-09-06T19:37:24.266Z,101225.00
2022-09-06T19:39:50.726Z,101224.59
2022-09-06T19:42:17.162Z,101222.22
2022-09-06T19:44:43.577Z,101217.09
2022-09-06T19:47:10.116Z,101221.09
2022-09-06T19:49:36.829Z,101213.13
2022-09-06T19:52:03.255Z,101216.34
2022-09-06T19:54:30.019Z,101209.75
2022-09-06T19:56:56.594Z,101212.97
2022-09-06T19:59:22.991Z,101209.31
2022-09-06T20:01:49.400Z,101209.59
2022-09-06T20:04:15.888Z,101208.72
2022-09-06T20:06:42.301Z,101210.84
2022-09-06T20:09:08.697Z,101208.81
2022-09-06T20:11:35.095Z,101215.97
2022-09-06T20:14:01.463Z,101212.41
2022-09-06T20:16:27.875Z,101207.63
2022-09-06T20:18:54.258Z,101199.50
2022-09-06T20:21:20.675Z,101195.66
2022-09-06T20:23:47.079Z,101197.22
2022-09-06T20:26:13.466Z,101196.00
2022-09-06T20:28:39.856Z,101201.19
2022-09-06T20:31:06.439Z,101203.25
2022-09-06T20:33:32.890Z,101213.06
2022-09-06T20:35:59.483Z,101201.38
2022-09-06T20:38:26.059Z,101198.56
2022-09-06T20:40:52.465Z,101199.41
2022-09-06T20:43:18.828Z,101196.22
2022-09-06T20:45:45.203Z,101198.72
2022-09-06T20:48:11.590Z,101193.22
2022-09-06T20:50:37.927Z,101193.53
2022-09-06T20:53:04.333Z,101191.91
2022-09-06T20:55:30.684Z,101195.56
2022-09-06T20:57:57.078Z,101194.44
2022-09-06T21:00:23.449Z,101192.44
2022-09-06T21:02:50.046Z,101185.97
2022-09-06T21:05:16.415Z,101177.06
2022-09-06T21:07:42.764Z,101187.69
2022-09-06T21:10:09.126Z,101191.38
2022-09-06T21:12:35.478Z,101189.47
2022-09-06T21:15:01.898Z,101190.28
2022-09-06T21:17:28.286Z,101197.44
2022-09-06T21:19:54.644Z,101194.66
2022-09-06T21:22:21.029Z,101194.25
2022-09-06T21:24:47.365Z,101190.66
2022-09-06T21:27:13.731Z,101194.25
2022-09-06T21:29:40.072Z,101195.84
2022-09-06T21:32:06.470Z,101191.03
2022-09-06T21:34:32.828Z,101191.84
2022-09-06T21:36:59.201Z,101189.47
2022-09-06T21:39:25.630Z,101189.06
2022-09-06T21:41:52.118Z,101186.25
2022-09-06T21:44:18.478Z,101180.69
2022-09-06T21:46:45.014Z,101186.25
2022-09-06T21:49:11.468Z,101178.69
2022-09-06T21:51:37.840Z,101176.69
2022-09-06T21:54:04.250Z,101183.06
2022-09-06T21:56:30.616Z,101184.19
2022-09-06T21:58:57.017Z,101180.59
2022-09-06T22:01:23.472Z,101174.63
2022-09-06T22:03:49.926Z,101174.25
2022-09-06T22:06:16.391Z,101178.22
2022-09-06T22:08:42.811Z,101177.81
2022-09-06T22:11:09.276Z,101175.81
2022-09-06T22:13:35.680Z,101175.00
2022-09-06T22:16:07.070Z,101178.19
2022-09-06T22:18:34.211Z,101170.63
2022-09-06T22:21:00.654Z,101173.78
2022-09-06T22:23:27.120Z,101177.78
2022-09-06T22:25:53.538Z,101171.81
2022-09-06T22:28:19.988Z,101175.38
2022-09-06T22:30:46.427Z,101177.34
2022-09-06T22:33:12.845Z,101173.78
2022-09-06T22:35:39.291Z,101170.19
2022-09-06T22:38:05.725Z,101170.16
2022-09-06T22:40:32.197Z,101172.97
2022-09-06T22:42:58.615Z,101171.38
2022-09-06T22:45:25.032Z,101173.38
2022-09-06T22:47:54.266Z,101172.56
2022-09-06T22:50:20.719Z,101176.16
2022-09-06T22:52:47.163Z,101173.72
2022-09-06T22:55:13.600Z,101176.16
2022-09-06T22:57:40.079Z,101173.78
2022-09-06T23:00:06.524Z,101176.16
2022-09-06T23:02:32.956Z,101170.97
2022-09-06T23:04:59.467Z,101171.38
2022-09-06T23:07:25.948Z,101174.53
2022-09-06T23:09:52.402Z,101170.97
2022-09-06T23:12:18.870Z,101172.56
2022-09-06T23:14:45.344Z,101171.38
2022-09-06T23:17:11.751Z,101167.00
2022-09-06T23:19:38.163Z,101169.78
2022-09-06T23:22:04.596Z,101168.16
2022-09-06T23:24:31.013Z,101166.19
2022-09-06T23:26:57.436Z,101167.00
2022-09-06T23:31:50.329Z,101160.59
2022-09-06T23:34:16.838Z,101161.00
2022-09-06T23:36:43.264Z,101159.44
2022-09-06T23:39:09.730Z,101159.81
2022-09-06T23:41:36.164Z,101151.06
2022-09-06T23:44:02.588Z,101155.84
2022-09-06T23:46:29.079Z,101154.63
2022-09-06T23:48:55.579Z,101151.84
2022-09-06T23:51:22.027Z,101151.84
2022-09-06T23:53:48.512Z,101153.84
2022-09-06T23:56:14.997Z,101149.44
2022-09-06T23:58:41.443Z,101149.03
